Time;durP1;ratioP1;P1;durP2;ratioP2;P2;SDS_P1;SDS_P2;PMS_P1;PMS_P2;Temp;Humidity;BMP_temperature;BMP_pressure;BME280_temperature;BME280_humidity;BME280_pressure;Samples;Min_cycle;Max_cycle;Signal;HPM_P1;HPM_P2
2022/12/11 00:01:11;;;;;;;13.00;6.30;;;;;;;2.08;86.88;97504.35;101892;1304;61201;-23
2022/12/11 00:03:38;;;;;;;8.40;4.60;;;;;;;2.02;86.73;97498.13;101878;1301;63073;-23
2022/12/11 00:06:07;;;;;;;9.60;6.40;;;;;;;2.05;86.52;97509.73;101944;1296;75666;-23
2022/12/11 00:08:34;;;;;;;7.20;4.90;;;;;;;1.64;87.72;97510.52;101932;1295;76703;-23
2022/12/11 00:11:01;;;;;;;7.60;4.50;;;;;;;1.44;88.69;97495.98;101856;1304;75217;-23
2022/12/11 00:13:28;;;;;;;6.00;4.10;;;;;;;1.66;88.94;97500.24;101922;1304;61223;-23
2022/12/11 00:15:57;;;;;;;8.80;5.30;;;;;;;2.10;87.39;97499.11;101860;1302;61749;-23
2022/12/11 00:18:24;;;;;;;6.20;3.90;;;;;;;2.17;86.37;97512.13;101773;1305;74342;-23
2022/12/11 00:20:51;;;;;;;6.40;4.10;;;;;;;2.09;86.02;97517.66;101895;1304;75850;-23
2022/12/11 00:23:18;;;;;;;5.40;3.50;;;;;;;1.89;86.20;97520.94;101870;1300;73223;-23
2022/12/11 00:25:46;;;;;;;5.20;3.30;;;;;;;1.64;86.73;97510.48;101850;1298;62047;-23
2022/12/11 00:28:14;;;;;;;5.50;3.40;;;;;;;1.51;87.73;97495.65;101650;1305;62785;-23
2022/12/11 00:30:41;;;;;;;5.70;3.10;;;;;;;2.05;87.08;97496.19;101598;1305;75054;-23
2022/12/11 00:33:09;;;;;;;7.30;3.70;;;;;;;2.30;85.81;97489.83;101864;1304;77112;-23
2022/12/11 00:35:40;;;;;;;6.00;4.30;;;;;;;2.16;85.63;97483.09;101924;1298;72725;-23
2022/12/11 00:38:08;;;;;;;7.10;4.80;;;;;;;1.84;86.41;97471.14;101720;1300;61131;-23
2022/12/11 00:40:35;;;;;;;9.30;5.10;;;;;;;1.61;87.18;97461.94;101850;1298;62912;-23
2022/12/11 00:43:03;;;;;;;5.00;3.30;;;;;;;1.57;88.38;97447.86;101644;1304;75824;-23
2022/12/11 00:45:29;;;;;;;5.00;3.30;;;;;;;2.03;87.22;97436.89;101893;1305;76852;-23
2022/12/11 00:47:56;;;;;;;6.00;3.70;;;;;;;2.13;86.17;97422.84;101861;1304;74908;-23
2022/12/11 00:50:23;;;;;;;5.90;3.30;;;;;;;1.87;86.82;97413.90;101878;1304;61802;-23
2022/12/11 00:52:50;;;;;;;8.30;5.20;;;;;;;1.72;87.31;97419.10;101960;1301;61810;-24
2022/12/11 00:55:17;;;;;;;6.10;3.90;;;;;;;1.56;88.61;97432.04;101705;1305;75421;-24
2022/12/11 00:57:44;;;;;;;4.60;2.40;;;;;;;2.03;87.71;97434.02;101763;1305;76498;-25
2022/12/11 01:00:12;;;;;;;5.90;2.90;;;;;;;2.15;86.60;97433.70;101899;1305;75179;-25
2022/12/11 01:02:39;;;;;;;4.90;2.80;;;;;;;1.98;86.67;97424.42;101716;1303;62679;-24
2022/12/11 01:05:08;;;;;;;6.10;3.80;;;;;;;1.72;87.60;97416.18;101757;1296;61765;-23
2022/12/11 01:07:36;;;;;;;5.80;2.80;;;;;;;1.59;87.99;97420.52;101720;1308;74357;-23
2022/12/11 01:13:09;;;;;;;4.40;3.10;;;;;;;2.27;86.66;97407.96;101793;1304;75257;-23
2022/12/11 01:15:41;;;;;;;6.10;3.90;;;;;;;2.22;86.05;97402.16;101824;1299;62090;-23
2022/12/11 01:18:09;;;;;;;9.00;5.40;;;;;;;2.08;86.12;97394.94;101757;1305;61837;-23
2022/12/11 01:20:37;;;;;;;8.20;4.10;;;;;;;1.54;88.81;97388.77;101767;1299;74335;-23
2022/12/11 01:23:05;;;;;;;6.70;3.90;;;;;;;1.47;89.69;97377.58;101821;1305;76782;-23
2022/12/11 01:25:32;;;;;;;12.90;6.40;;;;;;;1.81;89.51;97373.98;101910;1304;75335;-23
2022/12/11 01:27:59;;;;;;;11.50;5.40;;;;;;;2.20;88.16;97379.53;101478;1302;61588;-23
2022/12/11 01:30:26;;;;;;;12.70;6.60;;;;;;;2.09;87.37;97380.04;101882;1304;62385;-23
2022/12/11 01:32:53;;;;;;;9.60;5.50;;;;;;;1.91;87.74;97379.05;101746;1307;75491;-23
2022/12/11 01:35:20;;;;;;;8.30;4.50;;;;;;;1.68;88.41;97368.21;101787;1304;76805;-23
2022/12/11 01:37:47;;;;;;;8.20;4.30;;;;;;;1.77;88.86;97357.52;101644;1305;75419;-23
2022/12/11 01:40:17;;;;;;;15.00;7.40;;;;;;;2.19;87.62;97360.29;101834;1305;63056;-23
2022/12/11 01:42:44;;;;;;;14.90;6.00;;;;;;;2.19;87.15;97355.99;101757;1305;62186;-23
2022/12/11 01:45:20;;;;;;;12.80;6.30;;;;;;;2.05;87.33;97348.94;101915;1296;74519;-23
2022/12/11 01:48:17;;;;;;;15.20;6.80;;;;;;;1.83;87.98;97340.80;101772;1305;76733;-23
2022/12/11 01:51:04;;;;;;;8.00;4.80;;;;;;;1.51;89.49;97331.83;101500;1307;74249;-23
2022/12/11 01:53:40;;;;;;;7.40;4.70;;;;;;;2.03;89.27;97332.35;101754;1302;61959;-23
2022/12/11 01:56:07;;;;;;;10.10;6.30;;;;;;;2.31;87.59;97330.45;101833;1303;62512;-23
2022/12/11 01:58:40;;;;;;;10.60;5.60;;;;;;;2.35;86.84;97330.35;101855;1301;75469;-23
2022/12/11 02:01:06;;;;;;;8.70;6.00;;;;;;;2.17;86.93;97330.97;101896;1296;76228;-23
2022/12/11 02:03:34;;;;;;;4.90;3.10;;;;;;;1.87;87.68;97324.27;101635;1307;74304;-23
2022/12/11 02:06:01;;;;;;;5.00;3.10;;;;;;;1.87;87.87;97328.23;102002;1295;63087;-23
2022/12/11 02:08:28;;;;;;;4.90;3.10;;;;;;;2.32;87.13;97321.17;101867;1306;61652;-23
2022/12/11 02:11:04;;;;;;;3.80;2.70;;;;;;;2.55;86.08;97316.02;101763;1304;75609;-23
2022/12/11 02:13:48;;;;;;;9.20;4.10;;;;;;;2.41;85.80;97314.62;101707;1302;76978;-23
2022/12/11 02:16:53;;;;;;;8.80;3.90;;;;;;;2.14;86.48;97315.77;101669;1305;73964;-23
2022/12/11 02:19:30;;;;;;;5.40;3.70;;;;;;;1.83;87.71;97319.94;101898;1304;61174;-24
2022/12/11 02:21:57;;;;;;;4.70;3.00;;;;;;;1.99;88.40;97316.69;101832;1304;61707;-23
2022/12/11 02:24:27;;;;;;;7.50;4.60;;;;;;;2.48;86.94;97312.70;101724;1297;75892;-23
2022/12/11 02:27:26;;;;;;;8.20;4.30;;;;;;;2.65;85.88;97298.06;101905;1305;76366;-23
2022/12/11 02:30:06;;;;;;;3.50;2.50;;;;;;;2.44;85.76;97284.07;101929;1304;75010;-23
2022/12/11 02:32:36;;;;;;;4.20;3.20;;;;;;;1.82;88.39;97281.98;101796;1304;62109;-24
2022/12/11 02:35:21;;;;;;;2.30;1.50;;;;;;;1.66;89.66;97283.85;101749;1307;62970;-23
2022/12/11 02:37:51;;;;;;;4.30;2.80;;;;;;;1.69;91.68;97269.45;101837;1307;75288;-25
2022/12/11 02:40:20;;;;;;;4.80;3.70;;;;;;;2.33;89.56;97262.48;101810;1304;77094;-25
2022/12/11 02:42:47;;;;;;;3.70;2.80;;;;;;;2.42;88.10;97266.94;101930;1304;74314;-25
2022/12/11 02:45:14;;;;;;;7.30;3.80;;;;;;;2.35;87.93;97262.67;101970;1297;61586;-23
2022/12/11 02:47:42;;;;;;;6.40;4.30;;;;;;;2.10;87.90;97267.15;101838;1307;62657;-22
2022/12/11 02:50:11;;;;;;;17.50;7.40;;;;;;;1.83;89.07;97266.19;101797;1304;75664;-22
2022/12/11 02:52:38;;;;;;;12.90;6.70;;;;;;;2.00;89.84;97264.98;101962;1304;75911;-22
2022/12/11 02:55:51;;;;;;;22.60;8.60;;;;;;;2.57;87.77;97256.75;99151;1337;599311;-22
2022/12/11 02:58:23;;;;;;;21.20;7.70;;;;;;;2.43;87.28;97252.47;101106;1307;62944;-22
2022/12/11 03:00:50;;;;;;;16.90;6.50;;;;;;;2.04;88.71;97251.30;101077;1309;63098;-22
2022/12/11 03:03:17;;;;;;;14.80;8.10;;;;;;;1.96;89.05;97246.59;101069;1312;73192;-22
2022/12/11 03:05:45;;;;;;;10.00;4.70;;;;;;;1.77;90.25;97238.44;101289;1305;75697;-22
2022/12/11 03:08:17;;;;;;;7.60;5.10;;;;;;;1.97;90.19;97227.17;101042;1312;75198;-22
2022/12/11 03:10:44;;;;;;;6.60;4.60;;;;;;;2.36;88.31;97215.48;100591;1310;61878;-22
2022/12/11 03:13:12;;;;;;;6.40;4.20;;;;;;;2.26;88.22;97217.30;101297;1311;61119;-22
2022/12/11 03:15:40;;;;;;;10.90;5.50;;;;;;;2.12;88.51;97221.45;101231;1306;75033;-22
2022/12/11 03:18:27;;;;;;;8.40;5.20;;;;;;;1.87;89.04;97219.38;101333;1311;76744;-22
2022/12/11 03:21:08;;;;;;;8.60;5.30;;;;;;;1.55;90.53;97210.94;101074;1307;75597;-22
2022/12/11 03:23:50;;;;;;;11.90;5.50;;;;;;;1.63;91.72;97193.09;101350;1302;61181;-23
2022/12/11 03:26:17;;;;;;;6.20;4.10;;;;;;;2.35;89.89;97188.31;101078;1306;61434;-23
2022/12/11 03:28:59;;;;;;;8.30;4.80;;;;;;;2.08;88.88;97193.67;101061;1310;75648;-23
2022/12/11 03:31:34;;;;;;;4.90;3.10;;;;;;;2.08;88.54;97201.54;101939;1298;76834;-23
2022/12/11 03:34:03;;;;;;;4.10;3.30;;;;;;;1.88;88.67;97199.77;101985;1302;75287;-23
2022/12/11 03:36:32;;;;;;;6.70;3.90;;;;;;;1.68;90.14;97188.95;102065;1298;61725;-23
2022/12/11 03:39:11;;;;;;;5.60;3.10;;;;;;;2.25;89.17;97182.61;101969;1298;61932;-23
2022/12/11 03:41:38;;;;;;;5.20;3.80;;;;;;;2.47;87.40;97168.80;101976;1299;75495;-23
2022/12/11 03:44:05;;;;;;;8.40;5.10;;;;;;;2.32;86.92;97154.36;102157;1299;76514;-23
2022/12/11 03:46:35;;;;;;;5.60;3.40;;;;;;;2.11;87.32;97137.13;102337;1298;74250;-23
2022/12/11 03:49:15;;;;;;;11.90;4.60;;;;;;;1.78;88.34;97130.34;101883;1304;61781;-23
2022/12/11 03:51:43;;;;;;;17.50;6.20;;;;;;;2.02;88.85;97133.86;101993;1298;61926;-23
2022/12/11 03:54:10;;;;;;;8.50;4.20;;;;;;;2.43;87.19;97127.77;101945;1304;75599;-23
2022/12/11 03:56:37;;;;;;;8.20;4.30;;;;;;;2.45;86.54;97126.65;102153;1298;75709;-23
2022/12/11 03:59:04;;;;;;;7.50;4.50;;;;;;;2.31;86.57;97128.67;102129;1301;74269;-23
2022/12/11 04:01:31;;;;;;;5.00;3.50;;;;;;;2.01;87.28;97126.05;102289;1295;62073;-23
2022/12/11 04:03:58;;;;;;;5.10;3.80;;;;;;;2.05;87.95;97117.03;102234;1294;62588;-23
2022/12/11 04:06:25;;;;;;;5.30;3.80;;;;;;;2.48;87.02;97120.05;102284;1299;73927;-23
2022/12/11 04:08:52;;;;;;;4.30;3.10;;;;;;;2.57;86.20;97127.60;102210;1301;75726;-23
2022/12/11 04:11:34;;;;;;;4.10;3.00;;;;;;;2.38;86.25;97122.17;102259;1291;75202;-22
2022/12/11 04:16:53;;;;;;;5.70;3.50;;;;;;;2.08;87.97;97119.34;101988;1299;61893;-25
2022/12/11 04:24:51;;;;;;;3.80;3.00;;;;;;;2.46;86.06;97121.89;102323;1300;75294;-22
2022/12/11 04:30:06;;;;;;;4.70;3.00;;;;;;;2.04;88.04;97110.95;102307;1284;63357;-22
2022/12/11 04:32:33;;;;;;;4.00;2.90;;;;;;;2.37;87.63;97103.91;102179;1299;74497;-22
2022/12/11 04:35:00;;;;;;;9.00;6.30;;;;;;;2.43;87.03;97094.73;102151;1301;75762;-22
2022/12/11 04:37:27;;;;;;;5.20;3.90;;;;;;;2.34;87.21;97092.88;102268;1300;74182;-22
2022/12/11 04:39:54;;;;;;;4.50;3.40;;;;;;;2.20;87.44;97089.88;102196;1301;61760;-23
2022/12/11 04:42:21;;;;;;;4.50;3.30;;;;;;;2.00;88.14;97085.04;102304;1294;61726;-22
2022/12/11 04:44:48;;;;;;;3.80;2.10;;;;;;;2.24;88.46;97077.34;102329;1292;75148;-22
2022/12/11 04:47:14;;;;;;;6.80;4.80;;;;;;;2.56;87.18;97071.11;102275;1301;76553;-23
2022/12/11 04:49:41;;;;;;;8.90;5.10;;;;;;;2.43;86.98;97064.08;102033;1302;74179;-22
2022/12/11 04:52:08;;;;;;;8.50;4.90;;;;;;;2.10;88.01;97049.16;102051;1293;62871;-23
2022/12/11 04:54:35;;;;;;;6.70;4.60;;;;;;;1.74;90.73;97044.25;102314;1294;61137;-22
2022/12/11 04:57:02;;;;;;;18.00;8.70;;;;;;;1.91;90.65;97046.70;102294;1302;74519;-22
2022/12/11 04:59:33;;;;;;;9.60;5.80;;;;;;;2.50;89.46;97046.36;102237;1294;76788;-22
2022/12/11 05:02:00;;;;;;;6.10;4.90;;;;;;;2.53;87.90;97037.77;101956;1298;73033;-22
2022/12/11 05:04:32;;;;;;;6.70;4.40;;;;;;;2.21;88.40;97031.07;102238;1297;62974;-22
2022/12/11 05:06:59;;;;;;;5.20;3.50;;;;;;;2.01;89.51;97034.54;101995;1297;61586;-23
2022/12/11 05:09:26;;;;;;;4.70;2.60;;;;;;;2.07;89.48;97041.90;102261;1302;74575;-22
2022/12/11 05:11:53;;;;;;;6.00;3.40;;;;;;;2.55;88.41;97032.33;102233;1298;76730;-22
2022/12/11 05:14:20;;;;;;;5.60;3.90;;;;;;;2.71;87.16;97034.06;102274;1294;73915;-22
2022/12/11 05:16:47;;;;;;;4.10;2.70;;;;;;;2.45;87.63;97034.31;102240;1300;62592;-22
2022/12/11 05:19:14;;;;;;;5.20;3.80;;;;;;;2.29;88.03;97028.20;102102;1301;63040;-23
2022/12/11 05:21:41;;;;;;;5.80;4.20;;;;;;;2.03;89.33;97024.27;102318;1292;74076;-22
2022/12/11 05:24:08;;;;;;;2.70;1.80;;;;;;;2.08;89.42;97014.94;102346;1294;75830;-22
2022/12/11 05:26:35;;;;;;;8.50;5.60;;;;;;;2.57;88.21;97001.11;102280;1293;74425;-22
2022/12/11 05:29:02;;;;;;;7.70;4.40;;;;;;;2.71;87.48;96996.02;102144;1299;61957;-22
2022/12/11 05:31:29;;;;;;;4.60;3.70;;;;;;;2.62;87.08;96995.89;102159;1297;62748;-22
2022/12/11 05:33:56;;;;;;;4.70;3.20;;;;;;;2.40;87.52;96994.61;102057;1294;74975;-23
2022/12/11 05:36:28;;;;;;;3.80;2.40;;;;;;;2.20;88.42;96988.65;102257;1293;76714;-23
2022/12/11 05:38:56;;;;;;;3.10;1.90;;;;;;;2.57;88.27;96988.95;102141;1302;75218;-22
2022/12/11 05:41:24;;;;;;;4.50;3.10;;;;;;;2.95;86.57;96992.05;102172;1302;61272;-22
2022/12/11 05:43:51;;;;;;;3.10;2.20;;;;;;;2.80;86.35;96991.41;101939;1298;61129;-22
2022/12/11 05:46:26;;;;;;;3.70;2.80;;;;;;;2.60;86.95;96983.02;102264;1299;75945;-23
2022/12/11 05:48:55;;;;;;;4.30;2.60;;;;;;;2.20;88.61;96971.40;102013;1299;76763;-22
2022/12/11 05:51:22;;;;;;;1.70;1.60;;;;;;;2.09;89.76;96967.45;102193;1302;75223;-22
2022/12/11 05:53:50;;;;;;;3.00;2.40;;;;;;;2.56;89.04;96971.23;102217;1298;61398;-25
2022/12/11 05:56:23;;;;;;;2.90;2.10;;;;;;;3.02;87.29;96972.12;102027;1299;63147;-23
2022/12/11 05:58:50;;;;;;;4.80;2.50;;;;;;;3.01;86.35;96974.04;102104;1301;75310;-25
2022/12/11 06:01:19;;;;;;;4.00;2.90;;;;;;;2.86;86.26;96979.61;102248;1294;74799;-24
2022/12/11 06:03:46;;;;;;;4.60;3.00;;;;;;;2.63;86.60;96970.83;101977;1299;74104;-24
2022/12/11 06:06:14;;;;;;;8.60;2.80;;;;;;;2.47;87.31;96971.23;102339;1295;63579;-24
2022/12/11 06:08:41;;;;;;;2.80;2.50;;;;;;;2.91;87.16;96961.00;102122;1299;61524;-24
2022/12/11 06:11:08;;;;;;;5.60;3.90;;;;;;;3.26;85.99;96956.88;102294;1298;75448;-24
2022/12/11 06:13:35;;;;;;;3.70;3.00;;;;;;;3.02;86.08;96946.37;102193;1301;75827;-24
2022/12/11 06:16:04;;;;;;;12.60;6.20;;;;;;;2.86;87.03;96940.99;102293;1299;75156;-24
2022/12/11 06:18:35;;;;;;;6.70;4.10;;;;;;;2.62;87.80;96938.88;101987;1291;61123;-22
2022/12/11 06:21:19;;;;;;;4.90;2.80;;;;;;;2.46;89.14;96932.99;101955;1299;61783;-22
2022/12/11 06:23:47;;;;;;;4.80;3.30;;;;;;;3.01;88.16;96935.80;102058;1300;75301;-22
2022/12/11 06:26:14;;;;;;;9.00;4.80;;;;;;;3.31;86.97;96936.23;101942;1304;76511;-22
2022/12/11 06:28:41;;;;;;;7.70;4.70;;;;;;;3.16;86.57;96934.73;102296;1294;73904;-22
2022/12/11 06:31:08;;;;;;;4.80;2.70;;;;;;;2.95;87.30;96934.08;102191;1294;62714;-22
2022/12/11 06:33:35;;;;;;;4.40;3.40;;;;;;;2.83;87.87;96927.35;102197;1297;61530;-22
2022/12/11 06:36:07;;;;;;;6.10;3.80;;;;;;;3.24;87.78;96926.35;101993;1304;74481;-22
2022/12/11 06:38:34;;;;;;;4.10;2.90;;;;;;;3.46;86.55;96924.67;102167;1295;76727;-22
2022/12/11 06:41:03;;;;;;;4.70;2.10;;;;;;;3.27;86.76;96909.81;102089;1299;74179;-22
2022/12/11 06:43:31;;;;;;;3.50;2.60;;;;;;;3.05;87.32;96904.50;101953;1292;62921;-22
2022/12/11 06:45:58;;;;;;;3.40;2.60;;;;;;;2.95;87.86;96908.17;101967;1305;62802;-22
2022/12/11 06:48:29;;;;;;;3.50;2.50;;;;;;;3.29;87.53;96898.69;102133;1301;74515;-22
2022/12/11 06:50:56;;;;;;;5.20;4.10;;;;;;;3.44;87.00;96887.07;102254;1298;75894;-22
2022/12/11 06:53:23;;;;;;;5.40;3.10;;;;;;;3.43;86.94;96885.64;102274;1299;74193;-22
2022/12/11 06:55:50;;;;;;;6.10;3.50;;;;;;;3.28;86.91;96885.17;102198;1302;63101;-22
2022/12/11 06:58:17;;;;;;;3.20;2.40;;;;;;;3.05;87.44;96871.02;102340;1299;61343;-22
2022/12/11 07:00:44;;;;;;;4.80;2.30;;;;;;;3.18;87.94;96867.72;102241;1291;75672;-23
2022/12/11 07:03:12;;;;;;;6.10;3.30;;;;;;;3.57;87.00;96869.52;102345;1300;76780;-23
2022/12/11 07:05:39;;;;;;;6.60;2.70;;;;;;;3.57;86.45;96863.71;102205;1298;74926;-23
2022/12/11 07:08:06;;;;;;;30.60;8.10;;;;;;;3.37;86.50;96861.80;102024;1301;61736;-23
2022/12/11 07:10:33;;;;;;;8.50;3.80;;;;;;;3.17;87.49;96855.41;102264;1299;61135;-23
2022/12/11 07:13:00;;;;;;;6.00;3.30;;;;;;;3.41;87.71;96852.86;102111;1299;76089;-23
2022/12/11 07:15:27;;;;;;;5.30;3.40;;;;;;;3.84;86.45;96845.50;102094;1299;77228;-23
2022/12/11 07:17:54;;;;;;;6.00;3.30;;;;;;;3.87;85.90;96840.08;102078;1294;75223;-23
2022/12/11 07:20:21;;;;;;;6.20;3.00;;;;;;;3.73;86.10;96840.84;102113;1298;61827;-23
2022/12/11 07:22:49;;;;;;;10.60;5.30;;;;;;;3.46;86.80;96836.80;102082;1300;62622;-23
2022/12/11 07:25:15;;;;;;;9.00;4.00;;;;;;;3.35;87.72;96829.86;102237;1301;75243;-23
2022/12/11 07:27:43;;;;;;;9.90;4.80;;;;;;;3.78;87.24;96828.02;102179;1301;77013;-23
2022/12/11 07:30:10;;;;;;;6.30;4.10;;;;;;;3.99;86.42;96824.99;102277;1302;75062;-23
2022/12/11 07:32:37;;;;;;;5.00;3.50;;;;;;;3.86;86.12;96824.73;102171;1302;61188;-23
2022/12/11 07:35:05;;;;;;;4.50;3.30;;;;;;;3.68;86.92;96826.16;102126;1299;62620;-23
2022/12/11 07:37:31;;;;;;;4.50;3.50;;;;;;;3.54;87.73;96829.30;102281;1295;76652;-22
2022/12/11 07:39:58;;;;;;;7.10;2.90;;;;;;;3.96;87.45;96823.54;102187;1288;75536;-23
2022/12/11 07:42:25;;;;;;;4.20;3.40;;;;;;;4.28;86.07;96818.39;102006;1294;73937;-23
2022/12/11 07:44:52;;;;;;;3.70;2.90;;;;;;;4.28;86.08;96815.52;102016;1302;62760;-23
2022/12/11 07:47:19;;;;;;;7.70;4.30;;;;;;;4.06;86.44;96805.78;102158;1298;61816;-23
2022/12/11 07:49:47;;;;;;;3.40;2.40;;;;;;;3.83;87.13;96799.10;102317;1286;75591;-22
2022/12/11 07:52:14;;;;;;;4.00;2.50;;;;;;;4.09;87.78;96793.70;101978;1291;75345;-22
2022/12/11 07:54:41;;;;;;;3.80;2.40;;;;;;;4.43;86.79;96787.30;102120;1299;73947;-22
2022/12/11 07:57:08;;;;;;;6.10;4.30;;;;;;;4.34;86.68;96776.98;102088;1308;62546;-22
2022/12/11 07:59:42;;;;;;;4.20;2.30;;;;;;;4.15;86.91;96782.65;102278;1302;61908;-23
2022/12/11 08:02:10;;;;;;;6.70;3.90;;;;;;;4.09;87.61;96782.70;102306;1300;75280;-22
2022/12/11 08:04:37;;;;;;;7.20;5.30;;;;;;;4.48;86.99;96775.25;102136;1293;76824;-22
2022/12/11 08:07:04;;;;;;;6.40;4.40;;;;;;;4.64;86.18;96770.27;102099;1302;75226;-22
2022/12/11 08:09:32;;;;;;;6.50;4.50;;;;;;;4.58;86.09;96757.63;102153;1305;62627;-22
2022/12/11 08:11:59;;;;;;;5.50;3.70;;;;;;;4.32;86.63;96753.29;102140;1292;61591;-22
2022/12/11 08:14:26;;;;;;;3.60;2.60;;;;;;;4.15;87.25;96756.78;102318;1295;75356;-23
2022/12/11 08:16:53;;;;;;;5.80;3.50;;;;;;;4.51;87.34;96750.64;102268;1296;75366;-22
2022/12/11 08:19:20;;;;;;;7.00;4.70;;;;;;;4.86;86.18;96741.58;102121;1305;74162;-22
2022/12/11 08:21:47;;;;;;;7.60;4.00;;;;;;;4.83;85.69;96736.52;102226;1292;61845;-23
2022/12/11 08:24:15;;;;;;;7.60;4.70;;;;;;;4.61;86.33;96736.35;102276;1298;61592;-23
2022/12/11 08:26:43;;;;;;;7.40;4.60;;;;;;;4.45;86.75;96737.14;102229;1300;76580;-23
2022/12/11 08:29:10;;;;;;;4.70;3.20;;;;;;;4.47;87.18;96730.45;102020;1301;76757;-22
2022/12/11 08:31:38;;;;;;;15.50;9.80;;;;;;;4.94;86.49;96728.25;102014;1296;74957;-22
2022/12/11 08:34:05;;;;;;;20.40;12.30;;;;;;;5.00;85.21;96715.71;101922;1302;61797;-22
2022/12/11 08:36:32;;;;;;;14.00;8.70;;;;;;;4.84;85.59;96709.98;101989;1301;62481;-22
2022/12/11 08:38:59;;;;;;;19.00;13.40;;;;;;;4.55;86.96;96696.71;102158;1301;74906;-22
2022/12/11 08:41:28;;;;;;;9.00;5.60;;;;;;;4.36;87.63;96683.02;102226;1300;75968;-22
2022/12/11 08:43:56;;;;;;;8.50;5.60;;;;;;;4.50;88.06;96684.48;102077;1300;74724;-22
2022/12/11 08:46:25;;;;;;;4.10;3.10;;;;;;;5.03;87.32;96681.22;101912;1297;61780;-22
2022/12/11 08:48:53;;;;;;;8.80;5.70;;;;;;;5.14;85.97;96669.09;102100;1302;62543;-22
2022/12/11 08:51:22;;;;;;;8.90;6.30;;;;;;;5.02;86.10;96664.96;101917;1304;75074;-22
2022/12/11 08:53:49;;;;;;;10.30;6.80;;;;;;;4.68;87.18;96649.23;101942;1302;77312;-23
2022/12/11 08:56:18;;;;;;;6.50;4.60;;;;;;;4.55;87.95;96641.39;102121;1302;75444;-22
2022/12/11 08:58:46;;;;;;;7.00;5.00;;;;;;;4.80;87.74;96627.48;101964;1303;63057;-22
2022/12/11 09:01:21;;;;;;;9.70;5.50;;;;;;;5.18;86.60;96619.04;102161;1296;62879;-22
2022/12/11 09:03:48;;;;;;;7.80;5.20;;;;;;;5.20;86.06;96617.15;101965;1302;76089;-22
2022/12/11 09:06:17;;;;;;;7.80;4.60;;;;;;;5.10;86.13;96614.48;102011;1302;75773;-22
2022/12/11 09:08:46;;;;;;;7.60;3.80;;;;;;;4.88;86.53;96610.23;101977;1303;74518;-22
2022/12/11 09:11:24;;;;;;;3.90;2.90;;;;;;;4.66;87.22;96609.21;101898;1302;64403;-22
2022/12/11 09:13:51;;;;;;;4.70;2.70;;;;;;;5.12;87.10;96598.48;101945;1294;63134;-22
2022/12/11 09:16:19;;;;;;;3.70;2.50;;;;;;;5.51;85.28;96588.02;102307;1302;76721;-22
2022/12/11 09:18:48;;;;;;;5.30;3.10;;;;;;;5.45;84.58;96585.93;101943;1302;76510;-24
2022/12/11 09:21:17;;;;;;;5.30;3.40;;;;;;;5.24;85.11;96575.56;101922;1304;73994;-25
2022/12/11 09:23:44;;;;;;;9.80;3.60;;;;;;;5.01;86.17;96570.96;101993;1305;61170;-24
2022/12/11 09:26:13;;;;;;;5.20;2.90;;;;;;;4.83;87.01;96565.48;102302;1302;62860;-21
2022/12/11 09:28:40;;;;;;;5.50;3.50;;;;;;;5.16;86.91;96557.81;101957;1302;76343;-22
2022/12/11 09:31:15;;;;;;;5.40;4.20;;;;;;;5.46;85.77;96548.61;102160;1302;76916;-21
2022/12/11 09:33:42;;;;;;;5.30;4.20;;;;;;;5.37;85.69;96546.98;101919;1304;74232;-22
2022/12/11 09:36:10;;;;;;;5.10;3.70;;;;;;;5.21;86.25;96543.20;102127;1291;61848;-22
2022/12/11 09:38:37;;;;;;;3.40;2.40;;;;;;;4.98;87.36;96533.22;102009;1301;62983;-22
2022/12/11 09:41:20;;;;;;;4.20;3.00;;;;;;;5.28;87.44;96531.67;102118;1302;74307;-22
2022/12/11 09:44:12;;;;;;;2.90;2.20;;;;;;;5.76;85.95;96525.71;102032;1303;76515;-23
2022/12/11 09:46:39;;;;;;;2.00;1.60;;;;;;;5.69;85.71;96513.66;102174;1296;75241;-22
2022/12/11 09:49:20;;;;;;;3.90;2.80;;;;;;;5.50;86.65;96504.16;102278;1298;62218;-21
2022/12/11 09:51:59;;;;;;;3.00;1.70;;;;;;;5.32;87.90;96497.26;101882;1298;61851;-21
2022/12/11 09:54:26;;;;;;;3.80;2.60;;;;;;;5.63;87.93;96494.08;102052;1303;76357;-22
2022/12/11 09:56:57;;;;;;;6.00;4.30;;;;;;;5.78;86.67;96487.46;101969;1300;76771;-22
2022/12/11 09:59:56;;;;;;;3.30;2.90;;;;;;;5.62;86.76;96481.10;102105;1302;75011;-21
2022/12/11 10:02:58;;;;;;;8.40;5.10;;;;;;;5.33;87.87;96474.86;102136;1294;64528;-22
2022/12/11 10:05:43;;;;;;;5.10;3.80;;;;;;;5.72;87.14;96468.02;102057;1295;62585;-22
2022/12/11 10:08:16;;;;;;;7.00;5.00;;;;;;;5.81;86.45;96465.30;102196;1302;75805;-21
2022/12/11 10:10:50;;;;;;;5.30;4.30;;;;;;;5.63;86.43;96462.77;102210;1294;76762;-21
2022/12/11 10:13:40;;;;;;;4.60;3.40;;;;;;;5.39;87.02;96460.54;101962;1302;73681;-21
2022/12/11 10:16:35;;;;;;;5.50;3.30;;;;;;;5.61;87.44;96445.30;102190;1300;61253;-21
2022/12/11 10:19:02;;;;;;;3.90;3.20;;;;;;;5.96;86.35;96446.33;101956;1301;62899;-22
2022/12/11 10:21:38;;;;;;;5.30;2.50;;;;;;;5.93;86.02;96442.23;102064;1297;75690;-22
2022/12/11 10:24:15;;;;;;;3.40;1.30;;;;;;;5.73;86.84;96442.46;101888;1306;76834;-21
2022/12/11 10:27:18;;;;;;;2.80;1.50;;;;;;;5.57;87.78;96430.91;102024;1294;75093;-22
2022/12/11 10:29:46;;;;;;;;;;;;;;;5.97;87.06;96424.23;102168;1301;62637;-22
2022/12/11 10:32:24;;;;;;;4.90;2.20;;;;;;;6.06;86.32;96418.48;102209;1301;62617;-22
2022/12/11 10:34:56;;;;;;;3.10;2.00;;;;;;;5.89;86.91;96414.69;102071;1301;75329;-22
2022/12/11 10:37:23;;;;;;;3.20;1.60;;;;;;;5.70;87.73;96409.92;101932;1304;76442;-22
2022/12/11 10:39:50;;;;;;;1.30;0.90;;;;;;;5.89;88.20;96403.66;102194;1302;74140;-22
2022/12/11 10:42:19;;;;;;;5.50;1.60;;;;;;;6.20;87.12;96395.70;102206;1302;62893;-22
2022/12/11 10:45:00;;;;;;;2.30;1.60;;;;;;;6.15;86.83;96395.80;102110;1302;61757;-22
2022/12/11 10:47:27;;;;;;;2.50;1.80;;;;;;;5.94;87.16;96388.90;101884;1302;76183;-22
2022/12/11 10:49:57;;;;;;;2.70;1.20;;;;;;;5.78;87.79;96380.48;102108;1303;76826;-22
2022/12/11 10:52:31;;;;;;;3.10;1.90;;;;;;;6.15;87.68;96376.67;101950;1301;74974;-22
2022/12/11 10:55:05;;;;;;;2.70;1.80;;;;;;;6.37;86.66;96368.33;101969;1304;61145;-22
2022/12/11 10:57:36;;;;;;;2.70;1.90;;;;;;;6.26;86.59;96363.52;102160;1302;62653;-22
2022/12/11 11:00:06;;;;;;;2.20;1.70;;;;;;;6.04;87.91;96351.20;101960;1304;76398;-23
2022/12/11 11:02:37;;;;;;;2.70;1.80;;;;;;;6.14;88.20;96350.13;102009;1301;76710;-24
2022/12/11 11:05:35;;;;;;;2.50;1.80;;;;;;;6.53;87.12;96346.30;101945;1303;75332;-25
2022/12/11 11:08:17;;;;;;;4.20;2.20;;;;;;;6.48;86.44;96340.86;101987;1305;62110;-24
2022/12/11 11:10:52;;;;;;;3.10;2.20;;;;;;;6.20;86.92;96342.30;102177;1301;62582;-21
2022/12/11 11:13:21;;;;;;;1.60;1.10;;;;;;;6.12;88.11;96338.30;102172;1301;76342;-21
2022/12/11 11:15:49;;;;;;;1.80;1.00;;;;;;;6.56;87.46;96336.90;101937;1305;76621;-21
2022/12/11 11:18:24;;;;;;;3.20;1.80;;;;;;;6.70;86.07;96327.05;101942;1305;75237;-21
2022/12/11 11:20:51;;;;;;;3.10;1.60;;;;;;;6.53;86.22;96324.46;102007;1300;62653;-21
2022/12/11 11:23:20;;;;;;;1.80;1.30;;;;;;;6.29;87.18;96328.08;101938;1302;62618;-21
2022/12/11 11:25:58;;;;;;;2.30;1.20;;;;;;;6.32;87.95;96327.52;102009;1302;76396;-21
2022/12/11 11:28:35;;;;;;;1.70;1.10;;;;;;;6.63;86.82;96328.20;101968;1300;76881;-20
2022/12/11 11:31:13;;;;;;;1.60;1.40;;;;;;;6.57;86.30;96323.69;101914;1304;73921;-21
2022/12/11 11:33:53;;;;;;;1.40;1.30;;;;;;;6.32;86.84;96322.51;101916;1303;62887;-21
2022/12/11 11:36:28;;;;;;;2.10;1.40;;;;;;;6.19;87.64;96323.06;102086;1302;62634;-21
2022/12/11 11:39:01;;;;;;;1.10;1.00;;;;;;;6.52;87.21;96319.27;102123;1300;76215;-21
2022/12/11 11:41:34;;;;;;;1.30;0.90;;;;;;;6.53;86.28;96320.82;102301;1297;75925;-21
2022/12/11 11:44:03;;;;;;;2.90;1.80;;;;;;;6.32;86.61;96309.59;101920;1303;73295;-21
2022/12/11 11:46:57;;;;;;;2.00;1.30;;;;;;;6.12;87.25;96314.16;101895;1297;61839;-21
2022/12/11 11:49:31;;;;;;;2.10;1.40;;;;;;;6.32;87.74;96308.72;102081;1302;62994;-21
2022/12/11 11:52:07;;;;;;;2.60;2.40;;;;;;;6.67;86.61;96310.55;101914;1302;75463;-21
2022/12/11 11:54:39;;;;;;;3.10;2.70;;;;;;;6.65;85.95;96309.32;101957;1302;76069;-21
2022/12/11 11:57:16;;;;;;;2.20;2.00;;;;;;;6.42;86.15;96305.27;101908;1297;75150;-21
2022/12/11 11:59:46;;;;;;;3.80;1.80;;;;;;;6.21;87.07;96295.46;101925;1303;63249;-21
2022/12/11 12:02:15;;;;;;;2.60;1.90;;;;;;;6.59;87.31;96286.56;101971;1301;61802;-21